Time;durP1;ratioP1;P1;durP2;ratioP2;P2;SDS_P1;SDS_P2;PMS_P1;PMS_P2;Temp;Humidity;BMP_temperature;BMP_pressure;BME280_temperature;BME280_humidity;BME280_pressure;Samples;Min_cycle;Max_cycle;Signal;HPM_P1;HPM_P2
2024/01/02 00:00:06;;;;;;;11.45;9.30;;;;;;;;;;5050902;28;20471;-71
2024/01/02 00:02:31;;;;;;;11.85;9.45;;;;;;;;;;5044488;28;20089;-69
2024/01/02 00:04:56;;;;;;;12.32;9.45;;;;;;;;;;5059232;28;20122;-71
2024/01/02 00:07:22;;;;;;;10.73;8.68;;;;;;;;;;5043947;28;20415;-70
2024/01/02 00:09:47;;;;;;;11.95;9.38;;;;;;;;;;5051555;28;20060;-70
2024/01/02 00:12:12;;;;;;;11.50;9.05;;;;;;;;;;5057355;28;20104;-71
2024/01/02 00:14:38;;;;;;;10.68;9.25;;;;;;;;;;5063762;28;20025;-70
2024/01/02 00:17:03;;;;;;;11.15;8.93;;;;;;;;;;5053204;28;20044;-70
2024/01/02 00:19:29;;;;;;;10.80;9.02;;;;;;;;;;5053579;28;20037;-70
2024/01/02 00:21:54;;;;;;;12.20;9.15;;;;;;;;;;5051719;28;20045;-70
2024/01/02 00:24:19;;;;;;;12.63;9.63;;;;;;;;;;5068032;28;20504;-70
2024/01/02 00:26:44;;;;;;;12.85;9.93;;;;;;;;;;5071728;28;20553;-70
2024/01/02 00:29:11;;;;;;;12.35;9.88;;;;;;;;;;5063092;28;20071;-70
2024/01/02 00:31:36;;;;;;;11.27;9.48;;;;;;;;;;5060569;28;20036;-71
2024/01/02 00:34:01;;;;;;;12.18;9.48;;;;;;;;;;5051003;28;20437;-70
2024/01/02 00:36:27;;;;;;;12.02;9.07;;;;;;;;;;5055237;28;20056;-70
2024/01/02 00:38:52;;;;;;;11.40;9.23;;;;;;;;;;5048834;28;20064;-70
2024/01/02 00:41:17;;;;;;;11.63;9.20;;;;;;;;;;5055737;28;20068;-70
2024/01/02 00:43:42;;;;;;;11.10;9.15;;;;;;;;;;5048737;28;20482;-70
2024/01/02 00:46:08;;;;;;;11.32;9.50;;;;;;;;;;5051041;28;20095;-70
2024/01/02 00:48:34;;;;;;;11.30;9.18;;;;;;;;;;5063119;28;20036;-70
2024/01/02 00:51:03;;;;;;;12.38;9.82;;;;;;;;;;5057959;28;20122;-70
2024/01/02 00:53:28;;;;;;;11.80;9.53;;;;;;;;;;5048297;28;20060;-70
2024/01/02 00:55:54;;;;;;;11.45;9.27;;;;;;;;;;5050753;28;20091;-70
2024/01/02 00:58:19;;;;;;;13.60;9.43;;;;;;;;;;5056849;28;20033;-69
2024/01/02 01:00:44;;;;;;;11.75;9.05;;;;;;;;;;5047376;28;20036;-69
2024/01/02 01:03:10;;;;;;;11.93;9.43;;;;;;;;;;5042274;28;20040;-70
2024/01/02 01:05:35;;;;;;;12.48;9.73;;;;;;;;;;5056224;28;20469;-70
2024/01/02 01:08:00;;;;;;;11.52;9.65;;;;;;;;;;5050122;28;20029;-70
2024/01/02 01:10:25;;;;;;;11.27;9.27;;;;;;;;;;5054401;28;20066;-70
2024/01/02 01:12:51;;;;;;;10.63;8.80;;;;;;;;;;5050548;28;20179;-70
2024/01/02 01:15:16;;;;;;;11.68;9.25;;;;;;;;;;5039035;28;20052;-70
2024/01/02 01:17:42;;;;;;;11.25;8.85;;;;;;;;;;5048688;28;20843;-70
2024/01/02 01:20:08;;;;;;;12.10;9.52;;;;;;;;;;5052344;28;20066;-70
2024/01/02 01:22:34;;;;;;;11.73;9.70;;;;;;;;;;5055858;28;20565;-70
2024/01/02 01:24:59;;;;;;;11.48;9.32;;;;;;;;;;5049041;28;20504;-70
2024/01/02 01:27:24;;;;;;;9.68;8.18;;;;;;;;;;5054686;28;20114;-70
2024/01/02 01:29:50;;;;;;;10.98;9.27;;;;;;;;;;5039847;28;20095;-70
2024/01/02 01:32:15;;;;;;;10.82;8.90;;;;;;;;;;5040253;28;20036;-70
2024/01/02 01:34:41;;;;;;;11.15;9.32;;;;;;;;;;5061118;28;20040;-70
2024/01/02 01:37:06;;;;;;;10.55;8.63;;;;;;;;;;5051256;28;20052;-70
2024/01/02 01:39:31;;;;;;;11.68;8.88;;;;;;;;;;5051308;28;20499;-69
2024/01/02 01:41:57;;;;;;;10.55;9.30;;;;;;;;;;5060461;28;20132;-70
2024/01/02 01:44:22;;;;;;;10.82;8.73;;;;;;;;;;5057268;28;20078;-70
2024/01/02 01:46:47;;;;;;;11.48;9.02;;;;;;;;;;5052236;28;20041;-70
2024/01/02 01:49:14;;;;;;;12.15;9.68;;;;;;;;;;5032914;28;20524;-70
2024/01/02 01:51:40;;;;;;;11.65;8.75;;;;;;;;;;5041323;28;20527;-68
2024/01/02 01:54:05;;;;;;;9.73;8.55;;;;;;;;;;5061529;28;20551;-69
2024/01/02 01:56:31;;;;;;;10.68;8.57;;;;;;;;;;5052363;28;20033;-70
2024/01/02 01:58:56;;;;;;;10.95;8.43;;;;;;;;;;5049058;28;20051;-70
2024/01/02 02:01:22;;;;;;;10.82;9.07;;;;;;;;;;5046637;28;20107;-70
2024/01/02 02:03:47;;;;;;;9.55;8.55;;;;;;;;;;5048810;28;20041;-70
2024/01/02 02:06:13;;;;;;;10.77;8.73;;;;;;;;;;5058552;28;20115;-70
2024/01/02 02:08:38;;;;;;;11.80;9.00;;;;;;;;;;5046455;28;20029;-70
2024/01/02 02:11:04;;;;;;;9.57;8.50;;;;;;;;;;5048005;28;20474;-70
2024/01/02 02:13:29;;;;;;;11.40;8.82;;;;;;;;;;5039541;28;20121;-70
2024/01/02 02:15:55;;;;;;;10.23;8.80;;;;;;;;;;5046626;28;20048;-70
2024/01/02 02:18:20;;;;;;;11.77;9.07;;;;;;;;;;5037556;28;20046;-71
2024/01/02 02:20:45;;;;;;;10.93;8.57;;;;;;;;;;5059650;28;20037;-70
2024/01/02 02:23:11;;;;;;;9.45;7.95;;;;;;;;;;5067124;28;20041;-70
2024/01/02 02:25:36;;;;;;;10.75;9.13;;;;;;;;;;5057695;28;20132;-70
2024/01/02 02:28:01;;;;;;;10.93;8.73;;;;;;;;;;5056995;28;20104;-70
2024/01/02 02:30:27;;;;;;;10.23;8.32;;;;;;;;;;5042294;28;20143;-70
2024/01/02 02:32:52;;;;;;;9.80;8.25;;;;;;;;;;5050143;28;20073;-70
2024/01/02 02:35:17;;;;;;;9.55;8.15;;;;;;;;;;5054898;28;20049;-70
2024/01/02 02:37:43;;;;;;;10.20;8.25;;;;;;;;;;5052715;28;20029;-70
2024/01/02 02:40:09;;;;;;;9.40;8.10;;;;;;;;;;5042507;28;20041;-70
2024/01/02 02:42:34;;;;;;;9.90;7.93;;;;;;;;;;5049201;28;20120;-70
2024/01/02 02:44:59;;;;;;;9.68;7.93;;;;;;;;;;5055143;28;20135;-70
2024/01/02 02:47:25;;;;;;;9.90;8.00;;;;;;;;;;5049969;28;20033;-70
2024/01/02 02:49:51;;;;;;;10.50;8.18;;;;;;;;;;5044278;28;20033;-70
2024/01/02 02:52:17;;;;;;;10.27;7.82;;;;;;;;;;5082380;28;20041;-70
2024/01/02 02:54:42;;;;;;;9.10;7.82;;;;;;;;;;5070181;28;20044;-70
2024/01/02 02:57:08;;;;;;;9.90;8.10;;;;;;;;;;5062862;28;20040;-70
2024/01/02 02:59:33;;;;;;;9.23;7.50;;;;;;;;;;5047906;28;20515;-70
2024/01/02 03:01:58;;;;;;;10.07;7.85;;;;;;;;;;5050580;28;20048;-70
2024/01/02 03:04:24;;;;;;;10.77;7.72;;;;;;;;;;5053012;28;20541;-70
2024/01/02 03:06:49;;;;;;;8.05;7.20;;;;;;;;;;5057165;28;20468;-70
2024/01/02 03:09:14;;;;;;;8.73;7.22;;;;;;;;;;5049408;28;20102;-70
2024/01/02 03:11:40;;;;;;;10.00;8.07;;;;;;;;;;5064615;28;20119;-70
2024/01/02 03:14:05;;;;;;;9.32;7.85;;;;;;;;;;5059400;28;20068;-70
2024/01/02 03:16:30;;;;;;;9.68;7.93;;;;;;;;;;5039378;28;20175;-70
2024/01/02 03:18:55;;;;;;;8.60;7.25;;;;;;;;;;5055904;28;20029;-70
2024/01/02 03:21:28;;;;;;;8.65;7.70;;;;;;;;;;5057727;28;20037;-70
2024/01/02 03:23:54;;;;;;;10.45;7.88;;;;;;;;;;5055321;28;20037;-71
2024/01/02 03:26:19;;;;;;;8.48;7.07;;;;;;;;;;5061676;28;20025;-70
2024/01/02 03:28:44;;;;;;;9.10;7.53;;;;;;;;;;5055542;28;20091;-71
2024/01/02 03:31:10;;;;;;;9.27;7.30;;;;;;;;;;5062974;28;20137;-70
2024/01/02 03:33:35;;;;;;;9.93;7.30;;;;;;;;;;5057832;28;20024;-70
2024/01/02 03:36:00;;;;;;;9.23;7.55;;;;;;;;;;5050865;28;20499;-70
2024/01/02 03:38:26;;;;;;;8.57;7.25;;;;;;;;;;5051638;28;20021;-70
2024/01/02 03:40:51;;;;;;;8.68;6.97;;;;;;;;;;5051675;28;20048;-72
2024/01/02 03:43:16;;;;;;;8.02;7.00;;;;;;;;;;5057666;28;20029;-70
2024/01/02 03:45:42;;;;;;;8.40;6.72;;;;;;;;;;5060334;28;20009;-70
2024/01/02 03:48:07;;;;;;;8.60;7.22;;;;;;;;;;5047936;28;20155;-70
2024/01/02 03:50:32;;;;;;;8.52;7.07;;;;;;;;;;5045217;28;20017;-71
2024/01/02 03:52:57;;;;;;;8.20;6.70;;;;;;;;;;5041635;28;20028;-71
2024/01/02 03:55:23;;;;;;;8.57;7.10;;;;;;;;;;5050444;28;20033;-70
2024/01/02 03:57:48;;;;;;;8.88;6.60;;;;;;;;;;5052596;28;20063;-70
2024/01/02 04:00:14;;;;;;;8.70;6.55;;;;;;;;;;5052011;28;20104;-71
2024/01/02 04:02:39;;;;;;;8.60;6.78;;;;;;;;;;5050420;28;20064;-70
2024/01/02 04:05:04;;;;;;;8.38;6.50;;;;;;;;;;5051829;28;20033;-70
2024/01/02 04:07:30;;;;;;;6.95;6.13;;;;;;;;;;5059717;28;20158;-70
2024/01/02 04:09:55;;;;;;;8.35;6.55;;;;;;;;;;5054554;28;20499;-70
2024/01/02 04:12:21;;;;;;;7.20;5.90;;;;;;;;;;5032671;28;20021;-71
2024/01/02 04:14:46;;;;;;;8.10;6.43;;;;;;;;;;5052387;28;20021;-70
2024/01/02 04:17:11;;;;;;;7.82;6.70;;;;;;;;;;5053366;28;20115;-70
2024/01/02 04:19:37;;;;;;;7.53;6.28;;;;;;;;;;5041159;28;20498;-70
2024/01/02 04:22:02;;;;;;;7.25;6.13;;;;;;;;;;5056680;28;20079;-71
2024/01/02 04:24:27;;;;;;;7.43;6.22;;;;;;;;;;5061268;28;20069;-70
2024/01/02 04:26:53;;;;;;;7.40;6.25;;;;;;;;;;5056067;28;20502;-70
2024/01/02 04:29:18;;;;;;;7.75;6.22;;;;;;;;;;5040589;28;20095;-70
2024/01/02 04:31:43;;;;;;;7.38;6.07;;;;;;;;;;5055212;28;20032;-70
2024/01/02 04:34:09;;;;;;;7.47;6.38;;;;;;;;;;5052272;28;20020;-70
2024/01/02 04:36:36;;;;;;;7.93;6.25;;;;;;;;;;5059220;28;20024;-71
2024/01/02 04:39:03;;;;;;;7.03;5.70;;;;;;;;;;5047635;28;20093;-70
2024/01/02 04:41:29;;;;;;;7.22;5.70;;;;;;;;;;5050780;28;20029;-70
2024/01/02 04:43:54;;;;;;;7.20;5.93;;;;;;;;;;5056338;28;20100;-70
2024/01/02 04:46:20;;;;;;;6.05;5.45;;;;;;;;;;5052247;28;20028;-70
2024/01/02 04:48:46;;;;;;;7.95;5.93;;;;;;;;;;5060459;28;20074;-70
2024/01/02 04:51:11;;;;;;;7.32;5.85;;;;;;;;;;5057514;28;20040;-70
2024/01/02 04:53:37;;;;;;;6.50;5.13;;;;;;;;;;5064804;28;20094;-70
2024/01/02 04:56:02;;;;;;;6.70;5.75;;;;;;;;;;5053344;28;20056;-70
2024/01/02 04:58:27;;;;;;;6.50;5.32;;;;;;;;;;5052149;28;20040;-70
2024/01/02 05:00:53;;;;;;;6.10;5.50;;;;;;;;;;5038327;28;20175;-70
2024/01/02 05:03:18;;;;;;;6.90;5.45;;;;;;;;;;5047941;28;20043;-70
2024/01/02 05:05:43;;;;;;;6.97;5.70;;;;;;;;;;5049433;28;20037;-70
2024/01/02 05:08:09;;;;;;;6.90;5.57;;;;;;;;;;5058155;28;20504;-70
2024/01/02 05:10:34;;;;;;;6.05;5.45;;;;;;;;;;5052862;28;20033;-70
2024/01/02 05:12:59;;;;;;;6.82;5.60;;;;;;;;;;5060054;28;20025;-70
2024/01/02 05:15:26;;;;;;;6.60;5.53;;;;;;;;;;5051135;28;20468;-70
2024/01/02 05:17:51;;;;;;;6.05;5.03;;;;;;;;;;5052908;28;20037;-71
2024/01/02 05:20:16;;;;;;;6.43;5.25;;;;;;;;;;5058959;28;20029;-70
2024/01/02 05:22:41;;;;;;;5.90;5.18;;;;;;;;;;5064350;28;20032;-70
2024/01/02 05:25:08;;;;;;;5.85;5.18;;;;;;;;;;5060875;28;20114;-71
2024/01/02 05:27:33;;;;;;;6.72;5.13;;;;;;;;;;5058261;28;20611;-71
2024/01/02 05:29:58;;;;;;;6.80;5.07;;;;;;;;;;5039455;28;20057;-71
2024/01/02 05:32:23;;;;;;;6.45;5.05;;;;;;;;;;5051483;28;20553;-70
2024/01/02 05:34:49;;;;;;;5.93;4.82;;;;;;;;;;5047908;28;20045;-71
2024/01/02 05:37:16;;;;;;;6.70;4.75;;;;;;;;;;5045929;28;20040;-72
2024/01/02 05:39:41;;;;;;;5.70;4.80;;;;;;;;;;5048861;28;20029;-71
2024/01/02 05:42:06;;;;;;;5.78;4.88;;;;;;;;;;5049406;28;20160;-71
2024/01/02 05:44:32;;;;;;;6.47;4.97;;;;;;;;;;5046430;28;20048;-71
2024/01/02 05:46:57;;;;;;;5.97;4.95;;;;;;;;;;5047998;28;20106;-71
2024/01/02 05:49:22;;;;;;;5.80;4.55;;;;;;;;;;5050512;28;20037;-71
2024/01/02 05:51:48;;;;;;;8.23;5.07;;;;;;;;;;5047759;28;20032;-70
2024/01/02 05:54:13;;;;;;;5.55;4.68;;;;;;;;;;5028845;28;20048;-71
2024/01/02 05:56:38;;;;;;;5.72;4.28;;;;;;;;;;5046013;28;20459;-71
2024/01/02 05:59:03;;;;;;;5.63;4.45;;;;;;;;;;5046934;28;20037;-70
2024/01/02 06:01:29;;;;;;;5.15;4.45;;;;;;;;;;5046501;28;20052;-70
2024/01/02 06:03:54;;;;;;;6.25;4.50;;;;;;;;;;5044137;28;20123;-70
2024/01/02 06:06:19;;;;;;;5.53;4.30;;;;;;;;;;5046447;28;20029;-71
2024/01/02 06:08:46;;;;;;;5.00;4.40;;;;;;;;;;5048722;28;20086;-70
2024/01/02 06:11:11;;;;;;;5.25;4.38;;;;;;;;;;5029180;28;20175;-70
2024/01/02 06:13:36;;;;;;;5.32;4.20;;;;;;;;;;5044355;28;20424;-71
2024/01/02 06:16:01;;;;;;;4.88;4.03;;;;;;;;;;5048978;28;20037;-71
2024/01/02 06:18:27;;;;;;;4.57;3.78;;;;;;;;;;5065606;28;20036;-71
2024/01/02 06:20:52;;;;;;;5.57;4.53;;;;;;;;;;5042203;28;20048;-71
2024/01/02 06:23:17;;;;;;;5.32;4.25;;;;;;;;;;5045682;28;20056;-71
2024/01/02 06:25:43;;;;;;;4.68;3.95;;;;;;;;;;5045954;28;20063;-70
2024/01/02 06:28:08;;;;;;;5.28;4.25;;;;;;;;;;5048864;28;20074;-71
2024/01/02 06:30:33;;;;;;;4.97;4.03;;;;;;;;;;5042468;28;20032;-71
2024/01/02 06:32:58;;;;;;;5.25;3.80;;;;;;;;;;5043890;28;20033;-70
2024/01/02 06:35:24;;;;;;;4.07;3.67;;;;;;;;;;5051990;28;20068;-72
2024/01/02 06:37:49;;;;;;;4.82;3.80;;;;;;;;;;5058050;28;20073;-73
2024/01/02 06:40:15;;;;;;;4.90;4.00;;;;;;;;;;5042115;28;20499;-72
2024/01/02 06:42:40;;;;;;;4.88;3.72;;;;;;;;;;5051957;28;20471;-71
2024/01/02 06:45:07;;;;;;;4.95;3.85;;;;;;;;;;5037855;28;20041;-72
2024/01/02 06:47:32;;;;;;;3.88;3.47;;;;;;;;;;5040344;28;20055;-71
2024/01/02 06:49:58;;;;;;;4.57;3.63;;;;;;;;;;5041358;28;20508;-71
2024/01/02 06:52:23;;;;;;;4.72;3.42;;;;;;;;;;5038129;28;20037;-73
2024/01/02 06:54:48;;;;;;;4.53;3.70;;;;;;;;;;5051899;28;20052;-73
2024/01/02 06:57:13;;;;;;;3.58;3.22;;;;;;;;;;5037762;28;20032;-73
2024/01/02 06:59:40;;;;;;;4.22;3.15;;;;;;;;;;5039775;28;20127;-73
2024/01/02 07:02:05;;;;;;;4.78;3.50;;;;;;;;;;5041662;28;20041;-72
2024/01/02 07:04:30;;;;;;;4.18;3.20;;;;;;;;;;5056991;28;20142;-72
2024/01/02 07:06:56;;;;;;;3.45;2.95;;;;;;;;;;5039165;28;20454;-73
2024/01/02 07:09:21;;;;;;;4.40;3.20;;;;;;;;;;5042846;28;20334;-73
2024/01/02 07:11:47;;;;;;;3.25;2.80;;;;;;;;;;5041063;28;20126;-72
2024/01/02 07:14:13;;;;;;;2.75;2.45;;;;;;;;;;5038564;28;20071;-72
2024/01/02 07:16:38;;;;;;;3.90;3.17;;;;;;;;;;5040528;28;20475;-71
2024/01/02 07:19:03;;;;;;;3.75;2.90;;;;;;;;;;5045460;28;20045;-71
2024/01/02 07:21:29;;;;;;;3.70;3.00;;;;;;;;;;5041706;28;20033;-71
2024/01/02 07:23:54;;;;;;;4.28;3.13;;;;;;;;;;5046363;28;20047;-71
2024/01/02 07:26:19;;;;;;;4.13;2.80;;;;;;;;;;5042104;28;20116;-70
2024/01/02 07:28:45;;;;;;;4.40;2.78;;;;;;;;;;5062151;28;20269;-70
2024/01/02 07:31:10;;;;;;;3.28;2.70;;;;;;;;;;5045165;28;20036;-70
2024/01/02 07:33:36;;;;;;;3.20;2.67;;;;;;;;;;5038995;28;20028;-71
2024/01/02 07:36:01;;;;;;;3.50;2.80;;;;;;;;;;5043727;28;20368;-70
2024/01/02 07:38:26;;;;;;;4.15;2.75;;;;;;;;;;5053909;28;20032;-72
2024/01/02 07:40:53;;;;;;;4.10;2.83;;;;;;;;;;5038852;28;20039;-71
2024/01/02 07:43:18;;;;;;;3.53;2.80;;;;;;;;;;5041934;28;20346;-70
2024/01/02 07:45:43;;;;;;;3.47;2.35;;;;;;;;;;5042124;28;20048;-70
2024/01/02 07:48:09;;;;;;;2.58;2.17;;;;;;;;;;5046266;28;20039;-70
2024/01/02 07:50:34;;;;;;;4.40;2.85;;;;;;;;;;5060053;28;20037;-71
2024/01/02 07:52:59;;;;;;;3.25;2.58;;;;;;;;;;5047347;28;20044;-71
2024/01/02 07:55:25;;;;;;;3.92;2.55;;;;;;;;;;5042211;28;20564;-71
2024/01/02 07:57:50;;;;;;;3.05;2.30;;;;;;;;;;5036085;28;20036;-71
2024/01/02 08:00:16;;;;;;;2.78;2.20;;;;;;;;;;5048777;28;20113;-73
2024/01/02 08:02:44;;;;;;;2.97;2.22;;;;;;;;;;5051184;28;20038;-71
2024/01/02 08:05:09;;;;;;;6.50;2.55;;;;;;;;;;5053757;28;20037;-71
2024/01/02 08:07:35;;;;;;;3.15;2.10;;;;;;;;;;5045974;28;20515;-71
2024/01/02 08:10:00;;;;;;;3.85;2.00;;;;;;;;;;5041976;28;20783;-71
2024/01/02 08:12:25;;;;;;;3.83;2.30;;;;;;;;;;5049213;28;20033;-71
2024/01/02 08:14:52;;;;;;;2.60;1.95;;;;;;;;;;5057972;28;20242;-72
2024/01/02 08:17:23;;;;;;;3.15;2.38;;;;;;;;;;5047482;28;20041;-70
2024/01/02 08:19:48;;;;;;;2.50;1.98;;;;;;;;;;5048015;28;20064;-71
2024/01/02 08:22:14;;;;;;;2.97;1.98;;;;;;;;;;5058558;28;20521;-71
2024/01/02 08:24:39;;;;;;;2.70;2.20;;;;;;;;;;5041969;28;20036;-71
2024/01/02 08:27:04;;;;;;;2.50;1.92;;;;;;;;;;5039365;28;20049;-71
2024/01/02 08:29:30;;;;;;;3.08;2.00;;;;;;;;;;5035473;28;20113;-71
2024/01/02 08:31:55;;;;;;;2.92;1.80;;;;;;;;;;5037939;28;20029;-73
2024/01/02 08:34:20;;;;;;;2.88;2.00;;;;;;;;;;5036912;28;20189;-71
2024/01/02 08:36:46;;;;;;;3.03;1.88;;;;;;;;;;5039039;28;20041;-72
2024/01/02 08:39:11;;;;;;;2.63;1.65;;;;;;;;;;5051890;28;20206;-71
2024/01/02 08:41:36;;;;;;;2.30;1.70;;;;;;;;;;5037941;28;20033;-72
2024/01/02 08:44:02;;;;;;;2.38;1.98;;;;;;;;;;5053390;28;20397;-71
2024/01/02 08:46:28;;;;;;;3.25;1.90;;;;;;;;;;5036417;28;20095;-71
2024/01/02 08:48:53;;;;;;;2.53;1.67;;;;;;;;;;5040577;28;20045;-73
2024/01/02 08:51:18;;;;;;;2.35;1.83;;;;;;;;;;5039109;28;20057;-72
2024/01/02 08:53:44;;;;;;;2.55;1.85;;;;;;;;;;5053315;28;20557;-72
2024/01/02 08:56:09;;;;;;;4.47;1.80;;;;;;;;;;5034729;28;20455;-71
2024/01/02 08:58:35;;;;;;;2.13;1.50;;;;;;;;;;5041951;28;20461;-71
2024/01/02 09:03:44;;;;;;;2.10;1.55;;;;;;;;;;5037041;28;20071;-71
2024/01/02 09:06:10;;;;;;;3.10;1.50;;;;;;;;;;5051031;28;20333;-72
2024/01/02 09:08:35;;;;;;;2.40;1.42;;;;;;;;;;5021890;28;20360;-72
2024/01/02 09:11:00;;;;;;;2.65;1.60;;;;;;;;;;5038558;28;20037;-72
2024/01/02 09:13:26;;;;;;;2.40;1.63;;;;;;;;;;5040375;28;20044;-71
2024/01/02 09:15:51;;;;;;;2.42;1.60;;;;;;;;;;5046255;28;20037;-71
2024/01/02 09:18:17;;;;;;;1.65;1.25;;;;;;;;;;5065176;28;20035;-72
2024/01/02 09:20:44;;;;;;;2.45;1.73;;;;;;;;;;5042959;28;20037;-71
2024/01/02 09:23:09;;;;;;;2.20;1.63;;;;;;;;;;5040580;28;20044;-71
2024/01/02 09:25:35;;;;;;;1.80;1.50;;;;;;;;;;5042414;28;20037;-72
2024/01/02 09:28:01;;;;;;;2.00;1.45;;;;;;;;;;5042494;28;20075;-72
2024/01/02 09:30:29;;;;;;;3.83;1.45;;;;;;;;;;5043413;28;20060;-72
2024/01/02 09:32:54;;;;;;;2.95;1.50;;;;;;;;;;5042474;28;20032;-72
2024/01/02 09:35:21;;;;;;;2.55;1.35;;;;;;;;;;5042030;28;20400;-71
2024/01/02 09:37:46;;;;;;;2.05;1.52;;;;;;;;;;5052060;28;20045;-72
2024/01/02 09:40:32;;;;;;;1.77;1.35;;;;;;;;;;5048303;28;20036;-72
2024/01/02 09:43:04;;;;;;;1.77;1.20;;;;;;;;;;5028480;28;20440;-69
2024/01/02 09:45:42;;;;;;;2.22;1.45;;;;;;;;;;5039028;28;20243;-71
2024/01/02 09:48:13;;;;;;;1.95;1.20;;;;;;;;;;5038415;28;20048;-71
2024/01/02 09:50:58;;;;;;;2.03;1.30;;;;;;;;;;5056224;28;20712;-72
2024/01/02 09:53:42;;;;;;;2.17;1.23;;;;;;;;;;5026254;28;20120;-72
2024/01/02 09:56:08;;;;;;;2.42;1.55;;;;;;;;;;5049427;28;20045;-70
2024/01/02 09:58:43;;;;;;;2.22;1.40;;;;;;;;;;5035142;28;20093;-70
2024/01/02 10:01:12;;;;;;;3.08;1.50;;;;;;;;;;5043590;28;20553;-71
2024/01/02 10:03:37;;;;;;;3.67;1.48;;;;;;;;;;5043653;28;20052;-70
2024/01/02 10:06:08;;;;;;;2.03;1.38;;;;;;;;;;5036572;28;20511;-70
2024/01/02 10:08:52;;;;;;;2.03;1.25;;;;;;;;;;5036347;28;20032;-71
2024/01/02 10:11:25;;;;;;;2.42;1.20;;;;;;;;;;5035871;28;20586;-71
2024/01/02 10:13:52;;;;;;;2.22;1.38;;;;;;;;;;5051448;28;20418;-70
2024/01/02 10:16:36;;;;;;;2.10;1.20;;;;;;;;;;5040345;28;20139;-71
2024/01/02 10:19:02;;;;;;;1.80;1.17;;;;;;;;;;5038369;28;20041;-72
2024/01/02 10:21:28;;;;;;;1.92;1.25;;;;;;;;;;5041558;28;20041;-71
2024/01/02 10:24:09;;;;;;;2.30;1.30;;;;;;;;;;5044607;28;20160;-72
2024/01/02 10:26:37;;;;;;;3.05;1.27;;;;;;;;;;5042141;28;20033;-71
2024/01/02 10:29:03;;;;;;;2.13;1.20;;;;;;;;;;5042555;28;20120;-71
2024/01/02 10:31:41;;;;;;;1.70;1.10;;;;;;;;;;5047631;28;20089;-71
2024/01/02 10:34:18;;;;;;;1.52;1.02;;;;;;;;;;5042367;28;20621;-71
2024/01/02 10:36:49;;;;;;;1.60;1.10;;;;;;;;;;5037635;28;20113;-72
2024/01/02 10:39:20;;;;;;;1.83;1.45;;;;;;;;;;5041017;28;20036;-71
2024/01/02 10:41:57;;;;;;;2.25;1.15;;;;;;;;;;5044847;28;20107;-71
2024/01/02 10:44:27;;;;;;;1.85;1.20;;;;;;;;;;5053829;28;20131;-71
2024/01/02 10:46:53;;;;;;;2.22;1.10;;;;;;;;;;5049977;28;20110;-71
2024/01/02 10:49:22;;;;;;;2.08;1.20;;;;;;;;;;5047490;28;20080;-71
2024/01/02 10:51:51;;;;;;;1.80;1.10;;;;;;;;;;5041831;28;20033;-72
2024/01/02 10:54:24;;;;;;;1.80;1.02;;;;;;;;;;5045901;28;20092;-71
2024/01/02 10:56:53;;;;;;;1.52;1.00;;;;;;;;;;5043297;28;20064;-72
2024/01/02 10:59:24;;;;;;;1.90;1.10;;;;;;;;;;5047261;28;20493;-73
2024/01/02 11:01:49;;;;;;;2.28;0.88;;;;;;;;;;5046571;28;20053;-71
2024/01/02 11:04:18;;;;;;;1.98;1.00;;;;;;;;;;5025513;28;20125;-70
2024/01/02 11:06:47;;;;;;;1.90;1.17;;;;;;;;;;5050946;28;20029;-72
2024/01/02 11:09:21;;;;;;;1.83;1.00;;;;;;;;;;5046522;28;20056;-72
2024/01/02 11:11:50;;;;;;;1.65;0.82;;;;;;;;;;5042945;28;20119;-71
2024/01/02 11:14:15;;;;;;;1.77;1.17;;;;;;;;;;5042220;28;20037;-71
2024/01/02 11:16:41;;;;;;;2.10;1.10;;;;;;;;;;5042832;28;20054;-72
2024/01/02 11:19:06;;;;;;;1.48;1.00;;;;;;;;;;5044488;28;20037;-70
2024/01/02 11:21:35;;;;;;;1.70;1.08;;;;;;;;;;5046424;28;20041;-71
2024/01/02 11:24:02;;;;;;;1.63;1.10;;;;;;;;;;5048286;28;20028;-71
2024/01/02 11:26:28;;;;;;;2.17;0.90;;;;;;;;;;5048027;28;20068;-71
2024/01/02 11:28:54;;;;;;;2.10;1.17;;;;;;;;;;5045571;28;20040;-72
2024/01/02 11:31:20;;;;;;;2.50;1.08;;;;;;;;;;5047299;28;20033;-72
2024/01/02 11:34:01;;;;;;;1.75;1.00;;;;;;;;;;5048928;28;20036;-72
2024/01/02 11:36:32;;;;;;;1.60;1.13;;;;;;;;;;5044459;28;20040;-71
2024/01/02 11:39:00;;;;;;;1.65;0.90;;;;;;;;;;5046480;28;20128;-71
2024/01/02 11:41:44;;;;;;;2.00;1.05;;;;;;;;;;5045569;28;20047;-72
2024/01/02 11:44:18;;;;;;;1.58;0.98;;;;;;;;;;5059338;28;20037;-72
2024/01/02 11:46:44;;;;;;;1.55;0.90;;;;;;;;;;5044063;28;20024;-72
2024/01/02 11:49:10;;;;;;;1.30;0.90;;;;;;;;;;5047177;28;20010;-71
2024/01/02 11:51:35;;;;;;;1.98;1.10;;;;;;;;;;5056982;28;20415;-70
2024/01/02 11:54:07;;;;;;;1.25;0.80;;;;;;;;;;5039455;28;20017;-71
2024/01/02 11:56:33;;;;;;;2.03;1.13;;;;;;;;;;5039912;28;20028;-71
2024/01/02 11:59:04;;;;;;;1.60;0.90;;;;;;;;;;5045530;28;20067;-72
2024/01/02 12:01:30;;;;;;;2.05;1.10;;;;;;;;;;5043404;28;20125;-72
2024/01/02 12:03:55;;;;;;;2.42;0.98;;;;;;;;;;5039429;28;20579;-70
2024/01/02 12:06:40;;;;;;;2.17;0.93;;;;;;;;;;5038929;28;20040;-69
2024/01/02 12:09:09;;;;;;;1.63;1.08;;;;;;;;;;5043025;28;20038;-70
2024/01/02 12:11:37;;;;;;;2.45;1.20;;;;;;;;;;5054439;28;20114;-70
2024/01/02 12:14:17;;;;;;;2.80;1.25;;;;;;;;;;5042902;28;20193;-70
2024/01/02 12:16:42;;;;;;;1.90;1.20;;;;;;;;;;5042836;28;20048;-70
2024/01/02 12:19:08;;;;;;;2.00;1.25;;;;;;;;;;5040004;28;20052;-71
2024/01/02 12:21:34;;;;;;;2.45;1.15;;;;;;;;;;5054643;28;20568;-70
2024/01/02 12:24:01;;;;;;;4.20;1.10;;;;;;;;;;5044065;28;20120;-71
2024/01/02 12:26:27;;;;;;;2.72;1.10;;;;;;;;;;5053888;28;20037;-71
2024/01/02 12:28:52;;;;;;;1.98;0.95;;;;;;;;;;5055301;28;20508;-71
2024/01/02 12:31:24;;;;;;;1.95;0.93;;;;;;;;;;5044397;28;20037;-71
2024/01/02 12:33:57;;;;;;;2.33;1.00;;;;;;;;;;5052040;28;20036;-71
2024/01/02 12:36:26;;;;;;;2.03;1.00;;;;;;;;;;5025955;28;20124;-70
2024/01/02 12:38:52;;;;;;;1.65;0.95;;;;;;;;;;5044083;28;20029;-71
2024/01/02 12:41:24;;;;;;;2.70;1.30;;;;;;;;;;5045115;28;20051;-70
2024/01/02 12:43:50;;;;;;;3.35;1.30;;;;;;;;;;5055172;28;20033;-70
2024/01/02 12:46:19;;;;;;;2.63;1.25;;;;;;;;;;5040394;28;20041;-72
2024/01/02 12:49:05;;;;;;;3.53;1.10;;;;;;;;;;5055532;28;20878;-68
2024/01/02 12:51:30;;;;;;;2.42;1.10;;;;;;;;;;5041106;28;20029;-70
2024/01/02 12:53:56;;;;;;;1.90;1.20;;;;;;;;;;5051551;28;20029;-70
2024/01/02 12:56:23;;;;;;;2.95;1.00;;;;;;;;;;5045542;28;20041;-69
2024/01/02 12:58:49;;;;;;;2.47;1.00;;;;;;;;;;5043859;28;20129;-71
2024/01/02 13:01:15;;;;;;;2.03;1.20;;;;;;;;;;5054621;28;20117;-69
2024/01/02 13:03:44;;;;;;;2.25;1.10;;;;;;;;;;5043132;28;20029;-71
2024/01/02 13:06:09;;;;;;;1.77;1.00;;;;;;;;;;5041251;28;20518;-71
2024/01/02 13:08:35;;;;;;;1.92;1.15;;;;;;;;;;5039837;28;20042;-70
2024/01/02 13:11:00;;;;;;;2.28;1.00;;;;;;;;;;5057197;28;20136;-70
2024/01/02 13:13:26;;;;;;;3.63;1.40;;;;;;;;;;5045460;28;20591;-70
2024/01/02 13:15:53;;;;;;;3.72;1.52;;;;;;;;;;5040369;28;20048;-70
2024/01/02 13:18:19;;;;;;;1.98;1.20;;;;;;;;;;5044298;28;20041;-70
2024/01/02 13:20:44;;;;;;;1.83;0.93;;;;;;;;;;5042056;28;20136;-70
2024/01/02 13:23:09;;;;;;;2.97;1.30;;;;;;;;;;5051976;28;20194;-70
2024/01/02 13:25:39;;;;;;;2.10;1.02;;;;;;;;;;5043310;28;20029;-71
2024/01/02 13:28:23;;;;;;;2.70;1.00;;;;;;;;;;5054061;28;20083;-71
2024/01/02 13:30:49;;;;;;;2.65;1.42;;;;;;;;;;5044891;28;21101;-70
2024/01/02 13:33:18;;;;;;;2.65;1.08;;;;;;;;;;5042936;28;20029;-70
2024/01/02 13:35:46;;;;;;;3.03;1.33;;;;;;;;;;5058959;28;20121;-70
2024/01/02 13:38:13;;;;;;;1.90;1.20;;;;;;;;;;5056738;28;20075;-70
2024/01/02 13:40:38;;;;;;;3.63;1.25;;;;;;;;;;5048788;28;20033;-69
2024/01/02 13:43:04;;;;;;;3.28;1.30;;;;;;;;;;5044247;28;20041;-70
2024/01/02 13:45:33;;;;;;;2.65;1.40;;;;;;;;;;5042627;28;20063;-71
2024/01/02 13:48:12;;;;;;;1.90;1.30;;;;;;;;;;5038080;28;21080;-69
2024/01/02 13:50:38;;;;;;;3.55;1.20;;;;;;;;;;5039782;28;20053;-70
2024/01/02 13:53:04;;;;;;;2.28;1.20;;;;;;;;;;5053284;28;20033;-70
2024/01/02 13:55:30;;;;;;;4.43;1.50;;;;;;;;;;5057157;28;20100;-70
2024/01/02 13:57:55;;;;;;;2.40;1.20;;;;;;;;;;5037648;28;20045;-69
2024/01/02 14:00:22;;;;;;;2.30;1.17;;;;;;;;;;5040758;28;20037;-69
2024/01/02 14:02:52;;;;;;;2.05;1.20;;;;;;;;;;5036983;28;20526;-70
2024/01/02 14:05:25;;;;;;;4.80;1.50;;;;;;;;;;5034216;28;20851;-69
2024/01/02 14:07:51;;;;;;;12.07;1.95;;;;;;;;;;5035901;28;20064;-69
2024/01/02 14:10:16;;;;;;;2.40;1.20;;;;;;;;;;5035454;28;20037;-70
2024/01/02 14:12:47;;;;;;;3.33;1.17;;;;;;;;;;5053930;28;20029;-70
2024/01/02 14:15:17;;;;;;;2.95;1.48;;;;;;;;;;5055564;28;20519;-70
2024/01/02 14:17:46;;;;;;;2.35;1.20;;;;;;;;;;5042218;28;20108;-69
2024/01/02 14:20:12;;;;;;;2.90;1.30;;;;;;;;;;5040552;28;20102;-70
2024/01/02 14:22:42;;;;;;;2.55;1.08;;;;;;;;;;5055223;28;20435;-74
2024/01/02 14:25:17;;;;;;;4.25;1.30;;;;;;;;;;5044374;28;20033;-73
2024/01/02 14:27:49;;;;;;;2.38;1.25;;;;;;;;;;5038436;28;20070;-71
2024/01/02 14:30:31;;;;;;;2.13;1.17;;;;;;;;;;5044831;28;20095;-70
2024/01/02 14:33:06;;;;;;;3.35;1.65;;;;;;;;;;5044525;28;20492;-70
2024/01/02 14:35:46;;;;;;;5.25;1.50;;;;;;;;;;5038398;28;20033;-70
2024/01/02 14:38:14;;;;;;;3.15;1.30;;;;;;;;;;5040692;28;22105;-70
2024/01/02 14:40:50;;;;;;;3.53;1.77;;;;;;;;;;5053269;28;20622;-70